createdAt,value
2023-02-04T00:00:22.186Z,78.73
2023-02-04T00:03:27.839Z,79.51
2023-02-04T00:06:34.683Z,79.56
2023-02-04T00:09:42.911Z,80.17
2023-02-04T00:12:49.171Z,79.82
2023-02-04T00:15:54.920Z,80.62
2023-02-04T00:19:01.198Z,80.47
2023-02-04T00:22:07.893Z,79.97
2023-02-04T00:25:18.023Z,80.12
2023-02-04T00:28:23.359Z,79.93
2023-02-04T00:31:29.637Z,79.82
2023-02-04T00:34:35.270Z,79.83
2023-02-04T00:37:42.454Z,79.15
2023-02-04T00:40:50.805Z,79.03
2023-02-04T00:43:57.961Z,78.49
2023-02-04T00:47:03.377Z,78.79
2023-02-04T00:50:10.614Z,78.74
2023-02-04T00:53:16.036Z,79.20
2023-02-04T00:56:25.094Z,78.41
2023-02-04T00:59:30.577Z,78.94
2023-02-04T01:02:36.989Z,79.35
2023-02-04T01:05:42.643Z,79.58
2023-02-04T01:08:50.467Z,79.64
2023-02-04T01:11:58.618Z,79.55
2023-02-04T01:15:04.824Z,79.78
2023-02-04T01:18:10.177Z,79.69
2023-02-04T01:21:17.611Z,79.87
2023-02-04T01:24:22.964Z,79.71
2023-02-04T01:28:15.788Z,79.66
2023-02-04T01:31:21.530Z,80.10
2023-02-04T01:34:28.529Z,80.53
2023-02-04T01:37:34.273Z,79.86
2023-02-04T01:40:41.525Z,79.45
2023-02-04T01:43:50.925Z,79.04
2023-02-04T01:46:58.483Z,78.97
2023-02-04T01:50:04.443Z,77.89
2023-02-04T01:53:11.019Z,76.75
2023-02-04T01:56:22.743Z,76.05
2023-02-04T01:59:32.623Z,75.44
2023-02-04T02:02:45.783Z,75.00
2023-02-04T02:05:57.126Z,74.30
2023-02-04T02:09:05.762Z,74.62
2023-02-04T02:12:12.127Z,74.66
2023-02-04T02:15:21.663Z,74.19
2023-02-04T02:18:29.681Z,74.29
2023-02-04T02:21:47.012Z,74.01
2023-02-04T02:24:58.093Z,74.75
2023-02-04T02:28:07.910Z,75.64
2023-02-04T02:31:14.746Z,76.57
2023-02-04T02:34:20.796Z,77.15
2023-02-04T02:37:27.760Z,77.55
2023-02-04T02:40:36.123Z,77.61
2023-02-04T02:43:43.398Z,77.94
2023-02-04T02:46:49.581Z,77.75
2023-02-04T02:49:58.322Z,77.83
2023-02-04T02:53:04.424Z,78.09
2023-02-04T02:56:14.262Z,77.94
2023-02-04T02:59:22.003Z,78.02
2023-02-04T03:02:28.926Z,77.80
2023-02-04T03:05:42.951Z,78.32
2023-02-04T03:08:55.432Z,78.47
2023-02-04T03:12:03.846Z,78.54
2023-02-04T03:15:11.176Z,78.59
2023-02-04T03:18:23.045Z,78.92
2023-02-04T03:21:29.895Z,78.97
2023-02-04T03:24:35.930Z,78.36
2023-02-04T03:27:45.643Z,78.58
2023-02-04T03:30:53.956Z,78.51
2023-02-04T03:34:00.613Z,77.93
2023-02-04T03:37:05.998Z,78.52
2023-02-04T03:40:14.143Z,78.49
2023-02-04T03:43:22.362Z,78.21
2023-02-04T03:46:29.025Z,77.84
2023-02-04T03:49:36.038Z,78.06
2023-02-04T03:52:42.285Z,77.47
2023-02-04T03:55:47.605Z,77.58
2023-02-04T03:58:56.577Z,77.35
2023-02-04T04:02:02.074Z,76.91
2023-02-04T04:05:09.347Z,77.12
2023-02-04T04:08:14.784Z,76.27
2023-02-04T04:11:22.162Z,75.13
2023-02-04T04:14:30.333Z,74.59
2023-02-04T04:17:36.856Z,74.24
2023-02-04T04:20:42.531Z,74.21
2023-02-04T04:23:49.097Z,74.13
2023-02-04T04:26:54.452Z,74.79
2023-02-04T04:30:03.552Z,75.75
2023-02-04T04:33:08.937Z,73.58
2023-02-04T04:36:15.247Z,73.15
2023-02-04T04:39:20.650Z,72.78
2023-02-04T04:42:26.996Z,73.96
2023-02-04T04:45:35.225Z,75.10
2023-02-04T04:48:42.186Z,74.40
2023-02-04T04:51:47.577Z,73.45
2023-02-04T04:54:53.762Z,74.70
2023-02-04T04:57:59.453Z,73.81
2023-02-04T05:01:08.470Z,73.23
2023-02-04T05:04:13.868Z,73.35
2023-02-04T05:07:20.238Z,73.48
2023-02-04T05:10:25.586Z,73.88
2023-02-04T05:13:31.854Z,74.63
2023-02-04T05:16:40.314Z,73.37
2023-02-04T05:19:46.509Z,74.06
2023-02-04T05:22:51.898Z,72.52
2023-02-04T05:25:58.213Z,73.08
2023-02-04T05:29:03.501Z,72.04
2023-02-04T05:32:12.947Z,72.16
2023-02-04T05:35:18.339Z,72.21
2023-02-04T05:38:24.589Z,72.58
2023-02-04T05:41:30.003Z,73.34
2023-02-04T05:44:36.485Z,72.79
2023-02-04T05:47:44.746Z,72.34
2023-02-04T05:50:51.167Z,72.21
2023-02-04T05:53:56.505Z,73.07
2023-02-04T05:57:02.866Z,72.50
2023-02-04T06:00:10.704Z,71.73
2023-02-04T06:03:22.862Z,71.82
2023-02-04T06:06:28.254Z,71.37
2023-02-04T06:09:34.635Z,72.12
2023-02-04T06:12:40.045Z,69.97
2023-02-04T06:15:46.264Z,69.73
2023-02-04T06:18:54.423Z,69.57
2023-02-04T06:22:00.907Z,69.75
2023-02-04T06:25:06.312Z,68.74
2023-02-04T06:28:12.730Z,69.67
2023-02-04T06:31:18.481Z,68.75
2023-02-04T06:34:27.520Z,69.48
2023-02-04T06:37:33.034Z,68.72
2023-02-04T06:40:39.504Z,70.34
2023-02-04T06:43:44.935Z,69.81
2023-02-04T06:46:51.246Z,69.70
2023-02-04T06:50:00.190Z,68.67
2023-02-04T06:53:06.890Z,68.79
2023-02-04T06:56:12.715Z,68.47
2023-02-04T06:59:18.966Z,68.04
2023-02-04T07:02:24.962Z,68.45
2023-02-04T07:05:48.030Z,68.51
2023-02-04T07:09:08.642Z,67.92
2023-02-04T07:12:29.134Z,68.20
2023-02-04T07:15:49.954Z,67.81
2023-02-04T07:19:10.504Z,68.28
2023-02-04T07:22:36.431Z,67.44
2023-02-04T07:25:57.593Z,67.60
2023-02-04T07:29:25.132Z,66.80
2023-02-04T07:32:46.316Z,67.31
2023-02-04T07:36:07.235Z,67.37
2023-02-04T07:39:30.368Z,65.70
2023-02-04T07:42:50.925Z,66.89
2023-02-04T07:46:15.196Z,64.69
2023-02-04T07:49:35.616Z,65.02
2023-02-04T07:52:55.996Z,65.61
2023-02-04T07:56:19.081Z,65.39
2023-02-04T07:59:39.391Z,65.44
2023-02-04T08:02:59.788Z,66.09
2023-02-04T08:06:23.138Z,65.60
2023-02-04T08:09:47.307Z,65.83
2023-02-04T08:13:10.459Z,65.29
2023-02-04T08:16:30.794Z,66.49
2023-02-04T08:19:51.204Z,65.73
2023-02-04T08:23:11.574Z,66.10
2023-02-04T08:26:32.248Z,66.00
2023-02-04T08:29:55.554Z,64.56
2023-02-04T08:33:15.865Z,64.72
2023-02-04T08:36:46.706Z,63.30
2023-02-04T08:40:10.411Z,62.54
2023-02-04T08:43:31.284Z,61.93
2023-02-04T08:46:54.418Z,63.35
2023-02-04T08:50:14.978Z,62.73
2023-02-04T08:53:35.316Z,63.16
2023-02-04T08:56:55.818Z,62.67
2023-02-04T09:00:18.531Z,62.25
2023-02-04T09:03:42.260Z,61.41
2023-02-04T09:07:02.612Z,61.43
2023-02-04T09:10:23.112Z,62.10
2023-02-04T09:13:43.435Z,64.05
2023-02-04T09:17:04.374Z,63.13
2023-02-04T09:20:27.474Z,63.04
2023-02-04T09:23:48.856Z,63.13
2023-02-04T09:27:09.344Z,62.12
2023-02-04T09:30:29.938Z,62.29
2023-02-04T09:33:50.416Z,61.75
2023-02-04T09:37:13.559Z,60.90
2023-02-04T09:40:39.521Z,62.04
2023-02-04T09:43:59.970Z,61.27
2023-02-04T09:47:27.611Z,60.75
2023-02-04T09:50:48.841Z,60.65
2023-02-04T09:54:18.348Z,61.28
2023-02-04T09:57:38.991Z,61.94
2023-02-04T10:01:05.249Z,61.06
2023-02-04T10:04:29.149Z,59.86
2023-02-04T10:07:50.142Z,60.75
2023-02-04T10:11:15.269Z,60.61
2023-02-04T10:14:35.767Z,60.46
2023-02-04T10:18:04.653Z,59.31
2023-02-04T10:21:32.527Z,57.86
2023-02-04T10:24:52.886Z,58.38
2023-02-04T10:28:16.307Z,57.09
2023-02-04T10:31:51.950Z,56.20
2023-02-04T10:35:20.211Z,57.97
2023-02-04T10:38:40.570Z,57.03
2023-02-04T10:42:03.954Z,57.00
2023-02-04T10:45:33.703Z,57.12
2023-02-04T10:48:54.009Z,56.41
2023-02-04T10:52:21.810Z,54.72
2023-02-04T10:55:45.807Z,57.18
2023-02-04T10:59:06.185Z,56.61
2023-02-04T11:02:46.984Z,57.71
2023-02-04T11:06:17.463Z,56.63
2023-02-04T11:09:37.939Z,54.71
2023-02-04T11:13:07.992Z,56.64
2023-02-04T11:16:30.584Z,56.56
2023-02-04T11:19:53.706Z,56.53
2023-02-04T11:23:40.433Z,56.08
2023-02-04T11:27:22.288Z,56.57
2023-02-04T11:30:42.699Z,56.23
2023-02-04T11:34:28.161Z,55.04
2023-02-04T11:37:51.810Z,56.49
2023-02-04T11:41:26.910Z,56.11
2023-02-04T11:45:01.325Z,54.69
2023-02-04T11:48:24.436Z,56.08
2023-02-04T11:51:45.377Z,54.22
2023-02-04T11:55:09.037Z,53.27
2023-02-04T11:58:32.943Z,53.18
2023-02-04T12:01:53.219Z,53.40
2023-02-04T12:05:17.114Z,53.79
2023-02-04T12:08:39.537Z,54.16
2023-02-04T12:12:10.609Z,53.66
2023-02-04T12:15:38.511Z,54.52
2023-02-04T12:18:59.248Z,54.49
2023-02-04T12:22:19.768Z,53.68
2023-02-04T12:25:42.864Z,52.21
2023-02-04T12:29:06.057Z,53.37
2023-02-04T12:32:26.503Z,52.54
2023-02-04T12:35:46.988Z,52.50
2023-02-04T12:39:07.536Z,53.30
2023-02-04T12:42:27.878Z,54.47
2023-02-04T12:45:50.967Z,53.09
2023-02-04T12:49:11.285Z,54.65
2023-02-04T12:52:34.493Z,55.52
2023-02-04T12:55:57.008Z,55.68
2023-02-04T12:59:18.139Z,56.20
2023-02-04T13:02:41.253Z,55.89
2023-02-04T13:06:01.643Z,56.19
2023-02-04T13:09:22.357Z,55.71
2023-02-04T13:12:43.328Z,55.80
2023-02-04T13:16:03.778Z,54.98
2023-02-04T13:19:26.872Z,55.37
2023-02-04T13:22:47.186Z,56.07
2023-02-04T13:26:09.289Z,55.47
2023-02-04T13:29:30.127Z,55.29
2023-02-04T13:32:50.552Z,55.34
2023-02-04T13:36:16.514Z,55.36
2023-02-04T13:39:36.922Z,56.26
2023-02-04T13:42:57.198Z,56.91
2023-02-04T13:46:17.554Z,55.89
2023-02-04T13:49:40.737Z,56.93
2023-02-04T13:53:08.864Z,56.50
2023-02-04T13:56:29.313Z,55.57
2023-02-04T13:59:49.633Z,56.56
2023-02-04T14:03:09.913Z,57.05
2023-02-04T14:06:34.016Z,56.96
2023-02-04T14:09:59.024Z,58.04
2023-02-04T14:13:19.336Z,57.97
2023-02-04T14:16:42.776Z,57.77
2023-02-04T14:20:03.209Z,58.15
2023-02-04T14:23:29.275Z,58.56
2023-02-04T14:26:52.669Z,58.36
2023-02-04T14:30:20.677Z,58.44
2023-02-04T14:33:43.717Z,58.99
2023-02-04T14:37:04.050Z,59.86
2023-02-04T14:40:24.511Z,60.12
2023-02-04T14:43:47.588Z,59.63
2023-02-04T14:47:07.943Z,59.55
2023-02-04T14:50:28.902Z,60.63
2023-02-04T14:53:49.830Z,60.94
2023-02-04T14:57:12.177Z,61.25
2023-02-04T15:00:35.386Z,63.80
2023-02-04T15:03:58.956Z,64.24
2023-02-04T15:07:19.555Z,65.59
2023-02-04T15:10:41.671Z,66.22
2023-02-04T15:14:02.320Z,66.81
2023-02-04T15:17:25.449Z,67.71
2023-02-04T15:20:45.803Z,66.83
2023-02-04T15:24:06.136Z,66.70
2023-02-04T15:27:26.482Z,67.92
2023-02-04T15:30:46.925Z,67.16
2023-02-04T15:34:10.027Z,67.50
2023-02-04T15:37:30.410Z,67.14
2023-02-04T15:40:50.903Z,66.35
2023-02-04T15:44:12.293Z,66.26
2023-02-04T15:47:32.614Z,67.25
2023-02-04T15:50:55.711Z,66.06
2023-02-04T15:54:16.201Z,66.55
2023-02-04T15:57:36.823Z,66.08
2023-02-04T16:00:57.630Z,65.88
2023-02-04T16:04:21.009Z,65.62
2023-02-04T16:07:44.111Z,64.60
2023-02-04T16:11:05.954Z,65.98
2023-02-04T16:14:26.516Z,66.99
2023-02-04T16:17:47.993Z,68.54
2023-02-04T16:21:08.837Z,69.36
2023-02-04T16:24:32.029Z,69.43
2023-02-04T16:27:52.439Z,69.85
2023-02-04T16:31:15.858Z,68.80
2023-02-04T16:34:36.185Z,68.68
2023-02-04T16:37:56.639Z,68.21
2023-02-04T16:41:22.686Z,68.58
2023-02-04T16:44:43.006Z,67.22
2023-02-04T16:48:03.589Z,67.31
2023-02-04T16:51:25.058Z,66.96
2023-02-04T16:54:45.376Z,66.05
2023-02-04T16:58:08.489Z,67.24
2023-02-04T17:01:28.850Z,66.36
2023-02-04T17:04:49.440Z,65.99
2023-02-04T17:08:13.551Z,65.67
2023-02-04T17:11:37.461Z,65.80
2023-02-04T17:15:03.789Z,65.72
2023-02-04T17:18:24.138Z,66.27
2023-02-04T17:21:44.775Z,66.61
2023-02-04T17:25:05.138Z,66.40
2023-02-04T17:28:26.376Z,65.99
2023-02-04T17:31:49.536Z,66.78
2023-02-04T17:35:11.099Z,66.69
2023-02-04T17:38:31.883Z,66.27
2023-02-04T17:41:52.173Z,66.38
2023-02-04T17:45:14.365Z,66.15
2023-02-04T17:48:37.735Z,66.80
2023-02-04T17:51:58.061Z,66.08
2023-02-04T17:55:27.778Z,66.80
2023-02-04T17:58:48.220Z,66.81
2023-02-04T18:02:27.402Z,66.36
2023-02-04T18:05:53.595Z,66.05
2023-02-04T18:09:20.079Z,66.33
2023-02-04T18:12:40.701Z,65.21
2023-02-04T18:16:04.032Z,65.45
2023-02-04T18:19:35.577Z,64.16
2023-02-04T18:23:06.227Z,64.94
2023-02-04T18:26:28.744Z,64.39
2023-02-04T18:29:52.857Z,64.69
2023-02-04T18:33:23.579Z,64.86
2023-02-04T18:36:43.936Z,64.19
2023-02-04T18:40:28.520Z,62.90
2023-02-04T18:43:53.707Z,63.36
2023-02-04T18:47:32.735Z,62.98
2023-02-04T18:50:56.304Z,63.00
2023-02-04T18:54:39.147Z,62.57
2023-02-04T18:58:32.425Z,61.75
2023-02-04T19:01:52.846Z,62.33
2023-02-04T19:05:31.153Z,61.65
2023-02-04T19:08:51.511Z,62.48
2023-02-04T19:12:24.410Z,61.87
2023-02-04T19:16:01.396Z,61.97
2023-02-04T19:19:52.990Z,60.86
2023-02-04T19:23:21.194Z,62.31
2023-02-04T19:26:50.780Z,62.85
2023-02-04T19:30:51.083Z,65.09
2023-02-04T19:34:31.122Z,68.22
2023-02-04T19:38:00.678Z,69.18
2023-02-04T19:41:31.016Z,69.77
2023-02-04T19:44:51.791Z,69.36
2023-02-04T19:48:25.559Z,68.11
2023-02-04T19:51:56.017Z,69.10
2023-02-04T19:55:38.278Z,68.80
2023-02-04T19:58:58.901Z,67.22
2023-02-04T20:02:39.145Z,67.59
2023-02-04T20:06:10.544Z,66.47
2023-02-04T20:09:38.076Z,66.11
2023-02-04T20:13:03.647Z,66.71
2023-02-04T20:16:42.638Z,65.68
2023-02-04T20:20:27.938Z,66.10
2023-02-04T20:23:48.306Z,65.76
2023-02-04T20:27:23.364Z,65.91
2023-02-04T20:30:47.901Z,64.35
2023-02-04T20:34:23.334Z,64.58
2023-02-04T20:37:45.548Z,62.90
2023-02-04T20:41:21.962Z,64.07
2023-02-04T20:44:47.102Z,63.55
2023-02-04T20:48:35.391Z,63.71
2023-02-04T20:52:03.205Z,63.54
2023-02-04T20:55:30.813Z,64.23
2023-02-04T20:58:51.295Z,63.29
2023-02-04T21:02:21.651Z,63.38
2023-02-04T21:05:44.549Z,64.05
2023-02-04T21:09:08.822Z,63.83
2023-02-04T21:12:32.253Z,63.84
2023-02-04T21:15:53.815Z,62.42
2023-02-04T21:19:17.458Z,62.69
2023-02-04T21:22:38.114Z,63.41
2023-02-04T21:25:58.528Z,63.58
2023-02-04T21:29:19.137Z,63.51
2023-02-04T21:32:42.330Z,63.20
2023-02-04T21:36:05.533Z,63.06
2023-02-04T21:39:25.930Z,61.63
2023-02-04T21:42:46.720Z,62.01
2023-02-04T21:46:07.217Z,61.06
2023-02-04T21:49:27.815Z,60.96
2023-02-04T21:52:52.256Z,60.92
2023-02-04T21:56:14.412Z,60.55
2023-02-04T21:59:34.901Z,61.09
2023-02-04T22:02:57.422Z,61.12
2023-02-04T22:06:17.758Z,60.74
2023-02-04T22:09:40.917Z,60.13
2023-02-04T22:13:01.191Z,60.90
2023-02-04T22:16:21.600Z,60.10
2023-02-04T22:19:41.954Z,60.27
2023-02-04T22:23:02.270Z,60.94
2023-02-04T22:26:28.489Z,61.02
2023-02-04T22:29:48.967Z,60.46
2023-02-04T22:33:11.579Z,60.19
2023-02-04T22:36:31.961Z,60.54
2023-02-04T22:39:53.316Z,59.82
2023-02-04T22:43:16.385Z,60.03
2023-02-04T22:46:36.821Z,60.24
2023-02-04T22:49:57.210Z,59.74
2023-02-04T22:53:17.541Z,59.62
2023-02-04T22:56:37.894Z,60.51
2023-02-04T23:00:01.329Z,60.47
2023-02-04T23:03:21.619Z,61.05
2023-02-04T23:06:42.018Z,60.95
2023-02-04T23:10:03.051Z,61.33
2023-02-04T23:13:23.608Z,61.74
2023-02-04T23:16:47.277Z,61.03
2023-02-04T23:20:08.997Z,61.55
2023-02-04T23:23:31.744Z,61.84
2023-02-04T23:26:52.148Z,61.79
2023-02-04T23:30:13.838Z,61.30
2023-02-04T23:33:37.152Z,61.39
2023-02-04T23:36:57.539Z,62.02
2023-02-04T23:40:18.128Z,62.03
2023-02-04T23:43:38.464Z,63.02
2023-02-04T23:46:59.025Z,62.10
2023-02-04T23:50:22.783Z,62.79
2023-02-04T23:53:43.124Z,62.92
2023-02-04T23:57:04.114Z,63.22
